Time;durP1;ratioP1;P1;durP2;ratioP2;P2;SDS_P1;SDS_P2;PMS_P1;PMS_P2;Temp;Humidity;BMP_temperature;BMP_pressure;BME280_temperature;BME280_humidity;BME280_pressure;Samples;Min_cycle;Max_cycle;Signal;HPM_P1;HPM_P2
2023/12/23 00:01:53;;;;;;;21.02;16.83;;;;;;;;;;5093042;28;20312;-47
2023/12/23 00:04:20;;;;;;;15.45;13.32;;;;;;;;;;5095190;28;20344;-42
2023/12/23 00:06:46;;;;;;;16.02;14.02;;;;;;;;;;5096637;28;20057;-49
2023/12/23 00:09:15;;;;;;;17.58;13.23;;;;;;;;;;5095074;28;20032;-42
2023/12/23 00:11:42;;;;;;;13.35;11.65;;;;;;;;;;5093238;28;20016;-49
2023/12/23 00:14:09;;;;;;;14.13;11.60;;;;;;;;;;5096965;28;20079;-52
2023/12/23 00:16:36;;;;;;;14.00;10.85;;;;;;;;;;5094887;28;20024;-40
2023/12/23 00:19:03;;;;;;;18.65;11.52;;;;;;;;;;5096571;28;20019;-41
2023/12/23 00:21:30;;;;;;;18.20;12.20;;;;;;;;;;5098605;28;20317;-50
2023/12/23 00:23:56;;;;;;;24.45;16.60;;;;;;;;;;5097278;28;20318;-48
2023/12/23 00:26:23;;;;;;;20.48;13.88;;;;;;;;;;5099943;28;20047;-43
2023/12/23 00:28:49;;;;;;;28.38;19.23;;;;;;;;;;5099547;28;20044;-47
2023/12/23 00:31:16;;;;;;;29.77;22.48;;;;;;;;;;5100168;28;20055;-43
2023/12/23 00:33:44;;;;;;;22.42;15.70;;;;;;;;;;5097983;28;20019;-43
2023/12/23 00:36:11;;;;;;;20.77;16.15;;;;;;;;;;5098842;28;20028;-41
2023/12/23 00:38:37;;;;;;;22.15;17.33;;;;;;;;;;5099356;28;20211;-43
2023/12/23 00:41:04;;;;;;;19.35;14.35;;;;;;;;;;5099189;28;20335;-42
2023/12/23 00:43:30;;;;;;;20.60;13.70;;;;;;;;;;5095741;28;20225;-47
2023/12/23 00:45:57;;;;;;;21.60;12.90;;;;;;;;;;5098803;28;20023;-44
2023/12/23 00:48:24;;;;;;;18.98;11.65;;;;;;;;;;5096393;28;20224;-46
2023/12/23 00:50:50;;;;;;;14.18;11.07;;;;;;;;;;5097765;28;20291;-47
2023/12/23 00:53:17;;;;;;;13.90;11.35;;;;;;;;;;5095083;28;20044;-48
2023/12/23 00:55:44;;;;;;;15.30;10.50;;;;;;;;;;5094303;28;20016;-49
2023/12/23 00:58:10;;;;;;;14.63;9.38;;;;;;;;;;5095083;28;20087;-46
2023/12/23 01:00:39;;;;;;;13.68;8.93;;;;;;;;;;5103658;28;20036;-44
2023/12/23 01:03:06;;;;;;;9.95;8.55;;;;;;;;;;5101978;28;20020;-45
2023/12/23 01:05:32;;;;;;;11.15;8.77;;;;;;;;;;5104954;28;20012;-48
2023/12/23 01:07:59;;;;;;;11.82;8.50;;;;;;;;;;5104125;28;20060;-53
2023/12/23 01:10:26;;;;;;;11.90;8.40;;;;;;;;;;5105613;28;20030;-43
2023/12/23 01:12:54;;;;;;;9.40;7.93;;;;;;;;;;5106416;28;20116;-48
2023/12/23 01:15:21;;;;;;;12.88;8.00;;;;;;;;;;5106754;28;20036;-50
2023/12/23 01:17:47;;;;;;;11.43;7.72;;;;;;;;;;5106980;28;20079;-43
2023/12/23 01:20:14;;;;;;;13.25;7.80;;;;;;;;;;5105864;28;20047;-47
2023/12/23 01:22:41;;;;;;;10.77;7.63;;;;;;;;;;5104001;28;20020;-47
2023/12/23 01:25:08;;;;;;;8.68;7.60;;;;;;;;;;5095585;28;20095;-49
2023/12/23 01:27:34;;;;;;;11.63;7.75;;;;;;;;;;5098383;28;20016;-44
2023/12/23 01:30:01;;;;;;;9.93;7.72;;;;;;;;;;5105775;28;20093;-44
2023/12/23 01:32:28;;;;;;;9.63;7.78;;;;;;;;;;5105514;28;20088;-45
2023/12/23 01:34:54;;;;;;;9.98;8.00;;;;;;;;;;5106479;28;20043;-42
2023/12/23 01:37:21;;;;;;;12.75;7.60;;;;;;;;;;5106415;28;20024;-48
2023/12/23 01:39:47;;;;;;;11.30;7.72;;;;;;;;;;5106014;28;20024;-53
2023/12/23 01:42:14;;;;;;;9.82;7.70;;;;;;;;;;5106234;28;20035;-54
2023/12/23 01:44:40;;;;;;;10.32;7.57;;;;;;;;;;5101375;28;20028;-51
2023/12/23 01:47:07;;;;;;;11.50;7.78;;;;;;;;;;5105553;28;20024;-53
2023/12/23 01:49:34;;;;;;;12.27;7.82;;;;;;;;;;5106301;28;20079;-55
2023/12/23 01:52:01;;;;;;;17.10;8.30;;;;;;;;;;5105904;28;20035;-53
2023/12/23 01:54:29;;;;;;;10.40;7.85;;;;;;;;;;5106069;28;20023;-54
2023/12/23 01:56:56;;;;;;;9.88;8.05;;;;;;;;;;5106076;28;20340;-52
2023/12/23 01:59:22;;;;;;;11.05;8.40;;;;;;;;;;5105890;28;20223;-52
2023/12/23 02:01:49;;;;;;;11.73;8.13;;;;;;;;;;5099666;28;20016;-50
2023/12/23 02:04:16;;;;;;;10.00;7.75;;;;;;;;;;5093771;28;20039;-55
2023/12/23 02:06:42;;;;;;;12.00;8.27;;;;;;;;;;5100988;28;20027;-55
2023/12/23 02:09:10;;;;;;;12.75;9.55;;;;;;;;;;5103252;28;20099;-55
2023/12/23 02:11:36;;;;;;;12.90;10.63;;;;;;;;;;5095597;28;20028;-55
2023/12/23 02:14:07;;;;;;;12.07;9.07;;;;;;;;;;5096683;28;20564;-53
2023/12/23 02:16:34;;;;;;;12.00;9.70;;;;;;;;;;5085317;28;20044;-52
2023/12/23 02:19:01;;;;;;;12.73;9.00;;;;;;;;;;5085759;28;20305;-54
2023/12/23 02:21:28;;;;;;;12.50;8.43;;;;;;;;;;5085149;28;20244;-50
2023/12/23 02:23:54;;;;;;;11.75;8.18;;;;;;;;;;5085648;28;20020;-52
2023/12/23 02:26:25;;;;;;;11.65;8.23;;;;;;;;;;5085158;28;20216;-49
2023/12/23 02:28:52;;;;;;;9.70;8.00;;;;;;;;;;5085136;28;20410;-48
2023/12/23 02:31:22;;;;;;;13.60;7.97;;;;;;;;;;5085017;28;20024;-46
2023/12/23 02:33:49;;;;;;;12.65;8.77;;;;;;;;;;5085234;28;20071;-47
2023/12/23 02:36:21;;;;;;;14.98;8.60;;;;;;;;;;5084869;28;20017;-48
2023/12/23 02:38:48;;;;;;;12.85;8.45;;;;;;;;;;5085199;28;20025;-47
2023/12/23 02:41:14;;;;;;;8.80;7.38;;;;;;;;;;5096154;28;20216;-52
2023/12/23 02:43:41;;;;;;;10.10;7.57;;;;;;;;;;5084621;28;20020;-54
2023/12/23 02:46:08;;;;;;;9.55;7.13;;;;;;;;;;5084854;28;20024;-50
2023/12/23 02:48:34;;;;;;;9.20;6.35;;;;;;;;;;5085089;28;20059;-55
2023/12/23 02:51:01;;;;;;;7.82;6.68;;;;;;;;;;5084535;28;20081;-50
2023/12/23 02:53:27;;;;;;;14.13;7.13;;;;;;;;;;5084871;28;20047;-54
2023/12/23 02:55:54;;;;;;;8.35;6.40;;;;;;;;;;5084630;28;20070;-49
2023/12/23 02:58:20;;;;;;;9.63;6.50;;;;;;;;;;5084693;28;20020;-53
2023/12/23 03:00:47;;;;;;;8.98;6.43;;;;;;;;;;5084458;28;20336;-50
2023/12/23 03:03:14;;;;;;;11.63;6.40;;;;;;;;;;5084675;28;20208;-49
2023/12/23 03:05:40;;;;;;;9.57;6.07;;;;;;;;;;5084285;28;20097;-47
2023/12/23 03:08:07;;;;;;;6.97;5.93;;;;;;;;;;5084670;28;20039;-52
2023/12/23 03:10:33;;;;;;;10.63;5.65;;;;;;;;;;5084338;28;20039;-49
2023/12/23 03:13:00;;;;;;;9.13;6.40;;;;;;;;;;5084285;28;20043;-52
2023/12/23 03:15:26;;;;;;;10.13;6.45;;;;;;;;;;5084475;28;20051;-50
2023/12/23 03:17:54;;;;;;;8.02;6.28;;;;;;;;;;5084443;28;20186;-48
2023/12/23 03:20:20;;;;;;;7.22;5.85;;;;;;;;;;5084083;28;20024;-49
2023/12/23 03:22:47;;;;;;;11.38;5.90;;;;;;;;;;5084272;28;20062;-50
2023/12/23 03:25:14;;;;;;;8.60;6.88;;;;;;;;;;5084219;28;20032;-50
2023/12/23 03:27:40;;;;;;;8.70;6.45;;;;;;;;;;5085963;28;20020;-52
2023/12/23 03:30:07;;;;;;;8.40;6.32;;;;;;;;;;5092843;28;20115;-49
2023/12/23 03:32:34;;;;;;;9.27;6.25;;;;;;;;;;5083831;28;20032;-50
2023/12/23 03:35:00;;;;;;;10.57;6.40;;;;;;;;;;5083828;28;20021;-49
2023/12/23 03:37:27;;;;;;;7.13;6.22;;;;;;;;;;5084069;28;20036;-53
2023/12/23 03:39:54;;;;;;;9.02;6.63;;;;;;;;;;5084179;28;20056;-47
2023/12/23 03:42:20;;;;;;;7.40;6.28;;;;;;;;;;5083810;28;20024;-51
2023/12/23 03:44:47;;;;;;;8.27;6.40;;;;;;;;;;5083694;28;20671;-50
2023/12/23 03:47:13;;;;;;;8.55;6.30;;;;;;;;;;5083849;28;20201;-49
2023/12/23 03:49:40;;;;;;;8.02;6.15;;;;;;;;;;5083784;28;20031;-47
2023/12/23 03:52:06;;;;;;;9.00;5.85;;;;;;;;;;5083632;28;20323;-48
2023/12/23 03:54:33;;;;;;;6.95;5.63;;;;;;;;;;5082852;28;20028;-57
2023/12/23 03:57:00;;;;;;;9.32;5.82;;;;;;;;;;5083740;28;20022;-48
2023/12/23 03:59:26;;;;;;;8.50;5.97;;;;;;;;;;5083591;28;20062;-50
2023/12/23 04:01:53;;;;;;;8.05;5.75;;;;;;;;;;5083586;28;20027;-51
2023/12/23 04:04:20;;;;;;;6.35;5.13;;;;;;;;;;5083765;28;20031;-51
2023/12/23 04:06:46;;;;;;;7.00;5.70;;;;;;;;;;5083343;28;20017;-53
2023/12/23 04:09:13;;;;;;;9.45;5.43;;;;;;;;;;5083660;28;20028;-53
2023/12/23 04:11:40;;;;;;;7.90;5.55;;;;;;;;;;5083558;28;20020;-48
2023/12/23 04:14:07;;;;;;;8.32;5.50;;;;;;;;;;5100510;28;20027;-47
2023/12/23 04:16:33;;;;;;;9.95;5.60;;;;;;;;;;5100468;28;20025;-48
2023/12/23 04:19:00;;;;;;;9.52;5.63;;;;;;;;;;5103805;28;20073;-53
2023/12/23 04:21:26;;;;;;;7.30;5.50;;;;;;;;;;5114709;28;20024;-53
2023/12/23 04:23:53;;;;;;;9.77;5.53;;;;;;;;;;5102986;28;20024;-50
2023/12/23 04:26:20;;;;;;;6.88;4.85;;;;;;;;;;5102916;28;20224;-48
2023/12/23 04:28:46;;;;;;;8.13;5.40;;;;;;;;;;5103508;28;20044;-58
2023/12/23 04:31:13;;;;;;;7.18;5.35;;;;;;;;;;5102558;28;20212;-54
2023/12/23 04:33:39;;;;;;;8.38;5.53;;;;;;;;;;5102274;28;20024;-49
2023/12/23 04:36:06;;;;;;;7.60;5.18;;;;;;;;;;5102348;28;20247;-46
2023/12/23 04:38:35;;;;;;;7.18;4.32;;;;;;;;;;5103143;28;20249;-51
2023/12/23 04:41:01;;;;;;;7.35;4.80;;;;;;;;;;5103460;28;20020;-48
2023/12/23 04:43:30;;;;;;;6.93;5.00;;;;;;;;;;5103638;28;20020;-50
2023/12/23 04:45:57;;;;;;;7.32;5.10;;;;;;;;;;5103837;28;20088;-52
2023/12/23 04:48:27;;;;;;;9.68;4.60;;;;;;;;;;5103742;28;20369;-48
2023/12/23 04:50:53;;;;;;;6.55;4.65;;;;;;;;;;5103329;28;20075;-49
2023/12/23 04:53:25;;;;;;;7.97;4.63;;;;;;;;;;5103750;28;20079;-56
2023/12/23 04:55:52;;;;;;;6.95;4.68;;;;;;;;;;5103471;28;20092;-49
2023/12/23 04:58:18;;;;;;;6.75;4.97;;;;;;;;;;5103600;28;20026;-48
2023/12/23 05:00:45;;;;;;;6.63;4.78;;;;;;;;;;5103447;28;20020;-44
2023/12/23 05:03:11;;;;;;;8.63;5.10;;;;;;;;;;5103681;28;20096;-47
2023/12/23 05:05:40;;;;;;;7.90;4.82;;;;;;;;;;5104627;28;20034;-50
2023/12/23 05:08:07;;;;;;;6.43;4.78;;;;;;;;;;5107190;28;20205;-47
2023/12/23 05:10:34;;;;;;;9.43;5.03;;;;;;;;;;5107058;28;20020;-49
2023/12/23 05:13:00;;;;;;;8.90;4.80;;;;;;;;;;5106345;28;20047;-54
2023/12/23 05:15:27;;;;;;;5.63;4.57;;;;;;;;;;5106910;28;20042;-50
2023/12/23 05:17:53;;;;;;;7.45;4.85;;;;;;;;;;5107085;28;20174;-46
2023/12/23 05:20:20;;;;;;;8.82;4.88;;;;;;;;;;5106661;28;20024;-47
2023/12/23 05:22:46;;;;;;;7.93;4.97;;;;;;;;;;5106880;28;20216;-50
2023/12/23 05:25:13;;;;;;;6.53;4.97;;;;;;;;;;5106792;28;20250;-49
2023/12/23 05:27:40;;;;;;;5.68;4.72;;;;;;;;;;5106709;28;20023;-48
2023/12/23 05:30:07;;;;;;;7.88;5.10;;;;;;;;;;5106519;28;20102;-46
2023/12/23 05:32:33;;;;;;;9.45;5.38;;;;;;;;;;5106667;28;20062;-51
2023/12/23 05:35:00;;;;;;;7.05;5.32;;;;;;;;;;5106405;28;20033;-50
2023/12/23 05:37:26;;;;;;;8.73;5.35;;;;;;;;;;5106552;28;20081;-51
2023/12/23 05:39:53;;;;;;;6.50;5.40;;;;;;;;;;5106688;28;20083;-49
2023/12/23 05:42:19;;;;;;;9.88;5.63;;;;;;;;;;5106279;28;20035;-48
2023/12/23 05:44:46;;;;;;;7.90;5.63;;;;;;;;;;5106251;28;20020;-56
2023/12/23 05:47:14;;;;;;;7.03;5.68;;;;;;;;;;5106371;28;20062;-46
2023/12/23 05:49:40;;;;;;;8.60;5.82;;;;;;;;;;5106215;28;20323;-55
2023/12/23 05:52:07;;;;;;;7.60;5.70;;;;;;;;;;5106157;28;20036;-51
2023/12/23 05:54:33;;;;;;;7.43;5.85;;;;;;;;;;5106143;28;20020;-50
2023/12/23 05:57:00;;;;;;;6.95;5.50;;;;;;;;;;5106090;28;20026;-51
2023/12/23 05:59:27;;;;;;;8.95;5.45;;;;;;;;;;5105949;28;20024;-52
2023/12/23 06:01:53;;;;;;;6.40;5.13;;;;;;;;;;5105974;28;20012;-51
2023/12/23 06:04:20;;;;;;;9.55;5.80;;;;;;;;;;5106027;28;20024;-49
2023/12/23 06:06:46;;;;;;;8.25;5.80;;;;;;;;;;5105984;28;20046;-47
2023/12/23 06:09:13;;;;;;;9.95;5.65;;;;;;;;;;5105999;28;20221;-51
2023/12/23 06:11:40;;;;;;;7.80;5.28;;;;;;;;;;5105758;28;20020;-55
2023/12/23 06:14:06;;;;;;;6.13;5.50;;;;;;;;;;5105677;28;20095;-51
2023/12/23 06:16:38;;;;;;;8.38;6.00;;;;;;;;;;5105111;28;20023;-50
2023/12/23 06:19:04;;;;;;;7.50;5.80;;;;;;;;;;5105925;28;20054;-54
2023/12/23 06:21:31;;;;;;;6.50;5.72;;;;;;;;;;5105466;28;20020;-50
2023/12/23 06:23:58;;;;;;;8.75;6.18;;;;;;;;;;5105746;28;20020;-51
2023/12/23 06:26:25;;;;;;;9.57;5.93;;;;;;;;;;5105368;28;20032;-44
2023/12/23 06:28:52;;;;;;;6.35;5.30;;;;;;;;;;5105381;28;20062;-44
2023/12/23 06:31:19;;;;;;;8.73;5.60;;;;;;;;;;5105474;28;20034;-48
2023/12/23 06:33:46;;;;;;;6.68;5.28;;;;;;;;;;5105580;28;20220;-46
2023/12/23 06:36:13;;;;;;;7.22;5.75;;;;;;;;;;5105179;28;20205;-48
2023/12/23 06:38:39;;;;;;;11.13;5.80;;;;;;;;;;5105789;28;20040;-51
2023/12/23 06:41:06;;;;;;;6.57;5.53;;;;;;;;;;5105141;28;20019;-47
2023/12/23 06:43:32;;;;;;;11.20;5.35;;;;;;;;;;5105347;28;20089;-52
2023/12/23 06:46:00;;;;;;;5.57;5.07;;;;;;;;;;5105215;28;20035;-50
2023/12/23 06:48:27;;;;;;;9.77;5.63;;;;;;;;;;5104617;28;20028;-52
2023/12/23 06:50:53;;;;;;;8.32;5.47;;;;;;;;;;5104867;28;20031;-50
2023/12/23 06:53:20;;;;;;;7.13;5.30;;;;;;;;;;5105240;28;20043;-50
2023/12/23 06:55:47;;;;;;;8.13;5.18;;;;;;;;;;5104857;28;20020;-46
2023/12/23 06:58:13;;;;;;;7.22;5.28;;;;;;;;;;5104972;28;20027;-47
2023/12/23 07:00:40;;;;;;;7.75;5.60;;;;;;;;;;5104801;28;20058;-49
2023/12/23 07:03:06;;;;;;;9.30;5.32;;;;;;;;;;5104819;28;20031;-52
2023/12/23 07:05:33;;;;;;;10.75;5.65;;;;;;;;;;5104856;28;20256;-50
2023/12/23 07:08:00;;;;;;;9.30;5.47;;;;;;;;;;5104768;28;20181;-45
2023/12/23 07:10:26;;;;;;;7.10;5.50;;;;;;;;;;5104731;28;20034;-50
2023/12/23 07:12:53;;;;;;;7.13;5.15;;;;;;;;;;5104864;28;20024;-48
2023/12/23 07:15:20;;;;;;;6.10;5.22;;;;;;;;;;5104673;28;20328;-49
2023/12/23 07:17:47;;;;;;;8.40;5.20;;;;;;;;;;5104556;28;20042;-48
2023/12/23 07:20:14;;;;;;;6.65;5.40;;;;;;;;;;5104314;28;20020;-45
2023/12/23 07:22:41;;;;;;;6.70;5.43;;;;;;;;;;5104183;28;20027;-44
2023/12/23 07:25:08;;;;;;;8.25;5.90;;;;;;;;;;5096060;28;20209;-45
2023/12/23 07:27:34;;;;;;;9.43;5.63;;;;;;;;;;5096269;28;20024;-51
2023/12/23 07:30:01;;;;;;;6.88;5.47;;;;;;;;;;5104199;28;20098;-46
2023/12/23 07:32:27;;;;;;;6.35;5.32;;;;;;;;;;5104208;28;20082;-53
2023/12/23 07:34:54;;;;;;;6.43;5.07;;;;;;;;;;5104208;28;20028;-56
2023/12/23 07:37:20;;;;;;;7.47;5.28;;;;;;;;;;5104189;28;20028;-48
2023/12/23 07:39:47;;;;;;;8.52;5.57;;;;;;;;;;5104211;28;20027;-50
2023/12/23 07:42:14;;;;;;;7.20;5.03;;;;;;;;;;5104185;28;20081;-49
2023/12/23 07:44:40;;;;;;;9.13;5.45;;;;;;;;;;5103977;28;20265;-50
2023/12/23 07:47:09;;;;;;;6.97;5.57;;;;;;;;;;5104161;28;20028;-48
2023/12/23 07:49:36;;;;;;;7.88;5.50;;;;;;;;;;5104091;28;20201;-54
2023/12/23 07:52:03;;;;;;;7.80;5.72;;;;;;;;;;5103921;28;20339;-49
2023/12/23 07:54:29;;;;;;;10.85;5.68;;;;;;;;;;5103885;28;20151;-49
2023/12/23 07:56:56;;;;;;;13.10;5.47;;;;;;;;;;5104068;28;20027;-51
2023/12/23 07:59:23;;;;;;;8.13;6.03;;;;;;;;;;5103817;28;20028;-51
2023/12/23 08:01:49;;;;;;;7.75;4.97;;;;;;;;;;5103827;28;20012;-51
2023/12/23 08:04:16;;;;;;;7.18;5.55;;;;;;;;;;5103914;28;20024;-45
2023/12/23 08:06:43;;;;;;;8.30;5.75;;;;;;;;;;5103750;28;20131;-46
2023/12/23 08:09:10;;;;;;;7.93;5.60;;;;;;;;;;5104320;28;20020;-45
2023/12/23 08:11:36;;;;;;;7.10;5.75;;;;;;;;;;5104130;28;20038;-48
2023/12/23 08:14:04;;;;;;;10.57;5.57;;;;;;;;;;5104015;28;20313;-46
2023/12/23 08:16:30;;;;;;;8.15;5.43;;;;;;;;;;5103797;28;20019;-44
2023/12/23 08:18:57;;;;;;;7.82;5.30;;;;;;;;;;5104193;28;20021;-52
2023/12/23 08:21:24;;;;;;;9.05;5.63;;;;;;;;;;5103654;28;20078;-47
2023/12/23 08:23:50;;;;;;;8.30;5.47;;;;;;;;;;5104163;28;20027;-48
2023/12/23 08:26:17;;;;;;;6.75;5.50;;;;;;;;;;5103614;28;20020;-47
2023/12/23 08:28:43;;;;;;;8.82;5.13;;;;;;;;;;5103711;28;20048;-46
2023/12/23 08:31:10;;;;;;;7.18;5.40;;;;;;;;;;5103803;28;20048;-48
2023/12/23 08:33:36;;;;;;;6.97;5.35;;;;;;;;;;5103440;28;20084;-60
2023/12/23 08:36:03;;;;;;;7.93;5.32;;;;;;;;;;5103521;28;20312;-45
2023/12/23 08:38:30;;;;;;;6.97;5.45;;;;;;;;;;5103829;28;20058;-48
2023/12/23 08:40:56;;;;;;;7.13;5.53;;;;;;;;;;5105622;28;20024;-53
2023/12/23 08:43:23;;;;;;;9.30;5.50;;;;;;;;;;5107590;28;20045;-44
2023/12/23 08:45:49;;;;;;;8.93;5.95;;;;;;;;;;5107563;28;20023;-47
2023/12/23 08:48:16;;;;;;;7.40;5.65;;;;;;;;;;5107593;28;20024;-46
2023/12/23 08:50:43;;;;;;;8.07;5.57;;;;;;;;;;5107163;28;20212;-48
2023/12/23 08:53:09;;;;;;;7.43;5.45;;;;;;;;;;5107158;28;20039;-45
2023/12/23 08:55:36;;;;;;;9.55;5.45;;;;;;;;;;5107174;28;20376;-56
2023/12/23 08:58:02;;;;;;;8.27;5.55;;;;;;;;;;5107358;28;20028;-48
2023/12/23 09:00:29;;;;;;;8.40;5.60;;;;;;;;;;5107178;28;20042;-45
2023/12/23 09:02:56;;;;;;;6.38;5.65;;;;;;;;;;5107359;28;20024;-53
2023/12/23 09:05:22;;;;;;;9.70;5.90;;;;;;;;;;5107104;28;20024;-46
2023/12/23 09:07:49;;;;;;;7.18;5.38;;;;;;;;;;5107041;28;20020;-44
2023/12/23 09:10:15;;;;;;;8.82;5.63;;;;;;;;;;5107098;28;20066;-45
2023/12/23 09:12:42;;;;;;;8.60;5.75;;;;;;;;;;5106882;28;20043;-48
2023/12/23 09:15:09;;;;;;;9.60;5.65;;;;;;;;;;5106647;28;20043;-50
2023/12/23 09:17:35;;;;;;;8.02;5.72;;;;;;;;;;5107007;28;20252;-56
2023/12/23 09:20:04;;;;;;;7.93;6.00;;;;;;;;;;5106737;28;20020;-49
2023/12/23 09:22:31;;;;;;;9.40;5.75;;;;;;;;;;5106593;28;20212;-47
2023/12/23 09:24:57;;;;;;;7.60;5.53;;;;;;;;;;5106656;28;20320;-52
2023/12/23 09:27:24;;;;;;;9.35;6.25;;;;;;;;;;5106602;28;20069;-60
2023/12/23 09:29:51;;;;;;;8.55;5.68;;;;;;;;;;5106225;28;20055;-43
2023/12/23 09:32:17;;;;;;;6.97;5.55;;;;;;;;;;5107041;28;20030;-45
2023/12/23 09:34:44;;;;;;;7.95;5.30;;;;;;;;;;5106426;28;20020;-45
2023/12/23 09:37:10;;;;;;;9.07;5.75;;;;;;;;;;5106314;28;20043;-44
2023/12/23 09:39:37;;;;;;;8.18;5.80;;;;;;;;;;5106307;28;20040;-49
2023/12/23 09:42:04;;;;;;;7.47;5.60;;;;;;;;;;5101536;28;20023;-49
2023/12/23 09:44:30;;;;;;;7.70;5.72;;;;;;;;;;5085922;28;20087;-45
2023/12/23 09:46:57;;;;;;;7.88;5.80;;;;;;;;;;5091306;28;20022;-45
2023/12/23 09:49:24;;;;;;;9.10;6.03;;;;;;;;;;5106272;28;20037;-48
2023/12/23 09:51:51;;;;;;;6.70;5.88;;;;;;;;;;5104753;28;20023;-50
2023/12/23 09:54:21;;;;;;;7.97;5.30;;;;;;;;;;5087477;28;20028;-47
2023/12/23 09:56:51;;;;;;;7.80;5.78;;;;;;;;;;5085744;28;20027;-51
2023/12/23 09:59:17;;;;;;;6.22;5.38;;;;;;;;;;5093365;28;20047;-48
2023/12/23 10:01:44;;;;;;;8.70;5.65;;;;;;;;;;5106291;28;20020;-50
2023/12/23 10:04:10;;;;;;;7.90;5.60;;;;;;;;;;5106038;28;20095;-48
2023/12/23 10:06:37;;;;;;;8.00;6.40;;;;;;;;;;5087011;28;20020;-52
2023/12/23 10:09:04;;;;;;;9.02;5.97;;;;;;;;;;5086022;28;20246;-54
2023/12/23 10:11:30;;;;;;;9.10;6.13;;;;;;;;;;5085622;28;20247;-49
2023/12/23 10:13:57;;;;;;;8.63;6.10;;;;;;;;;;5085692;28;20089;-46
2023/12/23 10:16:24;;;;;;;7.32;6.32;;;;;;;;;;5085437;28;20078;-45
2023/12/23 10:18:50;;;;;;;7.10;6.30;;;;;;;;;;5085802;28;20013;-50
2023/12/23 10:21:19;;;;;;;8.13;6.32;;;;;;;;;;5085281;28;20070;-49
2023/12/23 10:23:46;;;;;;;9.73;5.70;;;;;;;;;;5085580;28;20097;-51
2023/12/23 10:26:15;;;;;;;10.88;6.13;;;;;;;;;;5085262;28;20092;-53
2023/12/23 10:28:43;;;;;;;8.70;6.63;;;;;;;;;;5085218;28;20056;-54
2023/12/23 10:31:13;;;;;;;8.50;6.78;;;;;;;;;;5085098;28;20067;-52
2023/12/23 10:33:43;;;;;;;7.50;6.53;;;;;;;;;;5085332;28;20028;-46
2023/12/23 10:36:10;;;;;;;10.10;6.22;;;;;;;;;;5092324;28;20028;-46
2023/12/23 10:38:40;;;;;;;9.20;6.32;;;;;;;;;;5105636;28;20043;-45
2023/12/23 10:41:06;;;;;;;9.27;6.35;;;;;;;;;;5105301;28;20216;-47
2023/12/23 10:43:33;;;;;;;9.93;6.20;;;;;;;;;;5105390;28;20027;-44
2023/12/23 10:46:00;;;;;;;10.77;6.45;;;;;;;;;;5094770;28;20245;-54
2023/12/23 10:48:29;;;;;;;11.18;6.25;;;;;;;;;;5085093;28;20342;-49
2023/12/23 10:50:57;;;;;;;10.75;6.05;;;;;;;;;;5087646;28;20028;-44
2023/12/23 10:53:23;;;;;;;8.88;6.38;;;;;;;;;;5102474;28;20024;-46
2023/12/23 10:55:51;;;;;;;9.00;6.13;;;;;;;;;;5104934;28;20312;-44
2023/12/23 10:58:19;;;;;;;9.13;5.97;;;;;;;;;;5105010;28;20020;-48
2023/12/23 11:00:46;;;;;;;7.25;5.50;;;;;;;;;;5101335;28;20031;-49
2023/12/23 11:03:13;;;;;;;11.90;6.38;;;;;;;;;;5084365;28;20324;-49
2023/12/23 11:05:41;;;;;;;7.75;5.80;;;;;;;;;;5089751;28;20034;-52
2023/12/23 11:08:12;;;;;;;8.00;5.35;;;;;;;;;;5093300;28;20023;-57
2023/12/23 11:10:40;;;;;;;9.00;5.65;;;;;;;;;;5091476;28;20054;-48
2023/12/23 11:13:07;;;;;;;9.32;6.40;;;;;;;;;;5093829;28;20035;-47
2023/12/23 11:15:37;;;;;;;7.63;6.00;;;;;;;;;;5093597;28;20028;-54
2023/12/23 11:18:03;;;;;;;9.90;6.13;;;;;;;;;;5103748;28;20012;-50
2023/12/23 11:20:35;;;;;;;12.55;6.13;;;;;;;;;;5095788;28;20044;-49
2023/12/23 11:23:22;;;;;;;16.13;6.57;;;;;;;;;;5093358;28;20382;-53
2023/12/23 11:25:48;;;;;;;14.25;6.30;;;;;;;;;;5080375;28;20032;-54
2023/12/23 11:28:15;;;;;;;12.93;6.65;;;;;;;;;;5095317;28;20027;-46
2023/12/23 11:30:51;;;;;;;12.27;6.35;;;;;;;;;;5092746;28;20044;-50
2023/12/23 11:33:22;;;;;;;17.05;7.00;;;;;;;;;;5092953;28;20025;-56
2023/12/23 11:35:49;;;;;;;14.93;7.22;;;;;;;;;;5102147;28;20028;-51
2023/12/23 11:38:16;;;;;;;12.93;7.18;;;;;;;;;;5104359;28;20355;-49
2023/12/23 11:40:43;;;;;;;10.80;6.90;;;;;;;;;;5104177;28;20020;-48
2023/12/23 11:43:10;;;;;;;15.90;6.75;;;;;;;;;;5104531;28;20023;-44
2023/12/23 11:45:39;;;;;;;19.80;7.30;;;;;;;;;;5104191;28;20055;-47
2023/12/23 11:48:07;;;;;;;12.07;7.18;;;;;;;;;;5104257;28;20024;-48
2023/12/23 11:50:34;;;;;;;12.77;6.47;;;;;;;;;;5104023;28;20027;-47
2023/12/23 11:53:01;;;;;;;12.13;7.15;;;;;;;;;;5103939;28;20204;-44
2023/12/23 11:55:27;;;;;;;37.65;25.40;;;;;;;;;;5103087;28;20016;-45
2023/12/23 11:57:54;;;;;;;46.33;34.15;;;;;;;;;;5104245;28;20036;-46
2023/12/23 12:00:20;;;;;;;33.90;25.90;;;;;;;;;;5103783;28;20016;-44
2023/12/23 12:02:47;;;;;;;213.20;33.33;;;;;;;;;;5104173;28;20028;-46
2023/12/23 12:05:14;;;;;;;226.07;33.83;;;;;;;;;;5104174;28;20024;-46
2023/12/23 12:07:41;;;;;;;106.78;22.05;;;;;;;;;;5103950;28;20279;-45
2023/12/23 12:10:07;;;;;;;75.82;18.50;;;;;;;;;;5103852;28;20062;-45
2023/12/23 12:12:34;;;;;;;48.03;14.27;;;;;;;;;;5104019;28;20020;-47
2023/12/23 12:15:01;;;;;;;44.38;13.00;;;;;;;;;;5104031;28;20036;-45
2023/12/23 12:17:27;;;;;;;45.03;12.63;;;;;;;;;;5108304;28;20023;-58
2023/12/23 12:19:54;;;;;;;34.85;11.57;;;;;;;;;;5108137;28;20039;-47
2023/12/23 12:22:22;;;;;;;29.25;10.02;;;;;;;;;;5107852;28;20292;-49
2023/12/23 12:24:48;;;;;;;28.52;9.25;;;;;;;;;;5107744;28;20028;-47
2023/12/23 12:27:15;;;;;;;25.45;8.68;;;;;;;;;;5107742;28;20023;-46
2023/12/23 12:29:41;;;;;;;23.85;9.55;;;;;;;;;;5107531;28;20048;-53
2023/12/23 12:32:14;;;;;;;27.65;9.07;;;;;;;;;;5107814;28;20122;-47
2023/12/23 12:34:40;;;;;;;22.13;8.73;;;;;;;;;;5107672;28;20024;-45
2023/12/23 12:37:08;;;;;;;23.92;8.52;;;;;;;;;;5107498;28;20020;-48
2023/12/23 12:39:35;;;;;;;17.88;8.10;;;;;;;;;;5107483;28;20024;-49
2023/12/23 12:42:02;;;;;;;21.80;8.43;;;;;;;;;;5107422;28;20035;-54
2023/12/23 12:44:28;;;;;;;17.42;7.78;;;;;;;;;;5107394;28;20024;-48
2023/12/23 12:46:55;;;;;;;15.98;7.80;;;;;;;;;;5107380;28;20023;-53
2023/12/23 12:49:22;;;;;;;11.60;7.45;;;;;;;;;;5107486;28;20023;-54
2023/12/23 12:51:50;;;;;;;10.73;7.90;;;;;;;;;;5107048;28;20024;-50
2023/12/23 12:54:18;;;;;;;14.50;7.65;;;;;;;;;;5107170;28;20054;-48
2023/12/23 12:56:46;;;;;;;14.52;7.40;;;;;;;;;;5107087;28;20067;-51
2023/12/23 12:59:13;;;;;;;13.95;7.43;;;;;;;;;;5107035;28;20028;-47
2023/12/23 13:01:40;;;;;;;12.77;7.47;;;;;;;;;;5107249;28;20054;-51
2023/12/23 13:04:07;;;;;;;11.82;7.90;;;;;;;;;;5107619;28;20023;-50
2023/12/23 13:06:33;;;;;;;9.93;7.72;;;;;;;;;;5106884;28;20312;-50
2023/12/23 13:09:00;;;;;;;11.88;7.32;;;;;;;;;;5107500;28;20029;-45
2023/12/23 13:11:26;;;;;;;13.65;8.05;;;;;;;;;;5106999;28;20032;-47
2023/12/23 13:13:55;;;;;;;10.98;7.50;;;;;;;;;;5107209;28;20069;-43
2023/12/23 13:16:21;;;;;;;11.00;7.78;;;;;;;;;;5107129;28;20031;-50
2023/12/23 13:18:48;;;;;;;9.70;7.20;;;;;;;;;;5107284;28;20034;-52
2023/12/23 13:21:15;;;;;;;9.88;7.38;;;;;;;;;;5106689;28;20055;-47
2023/12/23 13:23:42;;;;;;;10.60;7.38;;;;;;;;;;5107002;28;20020;-53
2023/12/23 13:26:09;;;;;;;9.20;7.50;;;;;;;;;;5106461;28;20035;-44
2023/12/23 13:28:35;;;;;;;10.45;6.93;;;;;;;;;;5106687;28;20046;-48
2023/12/23 13:31:03;;;;;;;11.75;7.53;;;;;;;;;;5106733;28;20077;-45
2023/12/23 13:33:29;;;;;;;8.98;7.30;;;;;;;;;;5106771;28;20020;-46
2023/12/23 13:35:56;;;;;;;10.05;7.78;;;;;;;;;;5106400;28;20069;-53
2023/12/23 13:38:25;;;;;;;10.20;7.88;;;;;;;;;;5106722;28;20316;-49
2023/12/23 13:40:54;;;;;;;8.45;7.20;;;;;;;;;;5106337;28;20051;-46
2023/12/23 13:43:21;;;;;;;11.68;7.68;;;;;;;;;;5106508;28;20020;-49
2023/12/23 13:45:47;;;;;;;12.07;7.30;;;;;;;;;;5106432;28;20028;-47
2023/12/23 13:48:14;;;;;;;10.43;8.10;;;;;;;;;;5106564;28;20028;-48
2023/12/23 13:50:40;;;;;;;9.60;7.72;;;;;;;;;;5106089;28;20138;-56
2023/12/23 13:53:07;;;;;;;10.48;7.50;;;;;;;;;;5106276;28;20038;-46
2023/12/23 13:55:34;;;;;;;9.57;7.05;;;;;;;;;;5106111;28;20028;-47
2023/12/23 13:58:00;;;;;;;9.75;8.00;;;;;;;;;;5106341;28;20044;-49
2023/12/23 14:00:27;;;;;;;10.68;7.28;;;;;;;;;;5106154;28;20133;-47
2023/12/23 14:02:53;;;;;;;7.95;6.85;;;;;;;;;;5106236;28;20030;-45
2023/12/23 14:05:20;;;;;;;9.07;7.68;;;;;;;;;;5105920;28;20023;-48
2023/12/23 14:07:46;;;;;;;13.52;7.45;;;;;;;;;;5105952;28;20024;-48
2023/12/23 14:10:13;;;;;;;13.23;7.82;;;;;;;;;;5105705;28;20181;-45
2023/12/23 14:12:40;;;;;;;16.10;7.78;;;;;;;;;;5105975;28;20030;-53
2023/12/23 14:15:06;;;;;;;8.85;7.97;;;;;;;;;;5105472;28;20054;-49
2023/12/23 14:17:33;;;;;;;9.73;8.30;;;;;;;;;;5105906;28;20026;-45
2023/12/23 14:20:00;;;;;;;13.70;8.80;;;;;;;;;;5105687;28;20020;-45
2023/12/23 14:22:26;;;;;;;10.65;8.57;;;;;;;;;;5105601;28;20019;-48
2023/12/23 14:24:55;;;;;;;9.02;8.23;;;;;;;;;;5105441;28;20023;-49
2023/12/23 14:27:21;;;;;;;12.38;9.00;;;;;;;;;;5105506;28;20085;-47
2023/12/23 14:29:49;;;;;;;11.68;9.65;;;;;;;;;;5105184;28;20248;-46
2023/12/23 14:32:16;;;;;;;14.52;10.50;;;;;;;;;;5105448;28;20016;-51
2023/12/23 14:34:43;;;;;;;12.68;10.50;;;;;;;;;;5105245;28;20090;-48